createdAt,value
2022-12-27T00:02:08.386Z,1.40
2022-12-27T00:04:54.133Z,1.42
2022-12-27T00:07:40.086Z,1.80
2022-12-27T00:10:25.261Z,1.65
2022-12-27T00:13:10.920Z,1.50
2022-12-27T00:15:55.988Z,1.38
2022-12-27T00:18:42.007Z,1.42
2022-12-27T00:21:27.979Z,1.42
2022-12-27T00:24:13.399Z,1.95
2022-12-27T00:26:58.899Z,1.67
2022-12-27T00:29:45.244Z,1.90
2022-12-27T00:32:30.901Z,1.40
2022-12-27T00:35:16.521Z,1.58
2022-12-27T00:38:02.172Z,1.30
2022-12-27T00:40:47.865Z,1.60
2022-12-27T00:43:33.311Z,1.13
2022-12-27T00:46:19.026Z,1.00
2022-12-27T00:49:04.342Z,1.00
2022-12-27T00:51:50.608Z,1.40
2022-12-27T00:54:35.922Z,1.35
2022-12-27T00:57:21.387Z,1.25
2022-12-27T01:00:10.306Z,1.20
2022-12-27T01:02:56.745Z,1.20
2022-12-27T01:05:42.820Z,1.20
2022-12-27T01:08:30.025Z,1.30
2022-12-27T01:11:16.478Z,1.17
2022-12-27T01:14:04.571Z,1.30
2022-12-27T01:16:51.141Z,1.23
2022-12-27T01:19:37.585Z,1.27
2022-12-27T01:22:23.279Z,1.48
2022-12-27T01:25:08.925Z,1.17
2022-12-27T01:27:54.040Z,1.20
2022-12-27T01:30:39.475Z,1.15
2022-12-27T01:33:24.768Z,1.10
2022-12-27T01:36:12.946Z,1.00
2022-12-27T01:38:59.326Z,1.52
2022-12-27T01:42:03.679Z,1.35
2022-12-27T01:45:12.218Z,1.10
2022-12-27T01:48:20.196Z,1.30
2022-12-27T01:51:06.137Z,1.40
2022-12-27T01:53:52.751Z,1.63
2022-12-27T01:56:38.137Z,1.40
2022-12-27T01:59:24.532Z,1.35
2022-12-27T02:02:09.784Z,1.25
2022-12-27T02:04:55.262Z,1.13
2022-12-27T02:08:04.785Z,1.40
2022-12-27T02:10:51.028Z,1.67
2022-12-27T02:13:40.749Z,1.45
2022-12-27T02:16:27.422Z,1.02
2022-12-27T02:19:21.996Z,1.30
2022-12-27T02:22:22.406Z,1.10
2022-12-27T02:25:23.526Z,1.80
2022-12-27T02:28:25.884Z,1.17
2022-12-27T02:31:19.167Z,1.67
2022-12-27T02:34:11.056Z,1.52
2022-12-27T02:37:01.069Z,1.70
2022-12-27T02:39:48.256Z,1.75
2022-12-27T02:42:52.047Z,1.52
2022-12-27T02:46:02.740Z,1.20
2022-12-27T02:49:18.043Z,1.55
2022-12-27T02:52:34.243Z,1.20
2022-12-27T02:55:38.716Z,1.35
2022-12-27T02:58:56.564Z,1.90
2022-12-27T03:02:15.740Z,1.40
2022-12-27T03:05:30.375Z,1.77
2022-12-27T03:08:32.089Z,1.30
2022-12-27T03:11:36.910Z,1.52
2022-12-27T03:14:56.064Z,1.67
2022-12-27T03:17:51.128Z,1.20
2022-12-27T03:20:58.426Z,1.17
2022-12-27T03:24:04.426Z,1.10
2022-12-27T03:26:51.142Z,1.65
2022-12-27T03:29:56.408Z,1.23
2022-12-27T03:33:08.570Z,1.42
2022-12-27T03:36:32.311Z,1.25
2022-12-27T03:39:31.542Z,1.33
2022-12-27T03:42:58.550Z,1.40
2022-12-27T03:46:34.591Z,1.45
2022-12-27T03:49:48.274Z,1.50
2022-12-27T03:52:43.931Z,0.93
2022-12-27T03:55:33.289Z,1.38
2022-12-27T03:58:19.437Z,1.30
2022-12-27T04:01:04.802Z,1.70
2022-12-27T04:03:50.095Z,1.45
2022-12-27T04:06:35.662Z,1.70
2022-12-27T04:09:39.597Z,1.48
2022-12-27T04:12:43.579Z,1.45
2022-12-27T04:15:47.504Z,1.23
2022-12-27T04:18:51.495Z,1.20
2022-12-27T04:21:55.257Z,1.38
2022-12-27T04:24:59.326Z,1.10
2022-12-27T04:28:02.858Z,1.40
2022-12-27T04:31:06.997Z,1.20
2022-12-27T04:34:11.191Z,1.23
2022-12-27T04:36:56.933Z,1.10
2022-12-27T04:40:03.148Z,1.05
2022-12-27T04:43:07.039Z,1.10
2022-12-27T04:46:24.595Z,1.13
2022-12-27T04:49:35.572Z,1.00
2022-12-27T04:52:41.785Z,1.17
2022-12-27T04:55:29.043Z,1.30
2022-12-27T04:58:14.338Z,1.20
2022-12-27T05:01:22.121Z,1.23
2022-12-27T05:04:07.656Z,1.40
2022-12-27T05:06:53.948Z,1.52
2022-12-27T05:09:57.497Z,1.20
2022-12-27T05:13:01.462Z,1.27
2022-12-27T05:15:48.133Z,1.45
2022-12-27T05:18:33.380Z,1.20
2022-12-27T05:21:18.993Z,1.77
2022-12-27T05:24:23.719Z,1.30
2022-12-27T05:27:08.766Z,1.38
2022-12-27T05:29:54.416Z,1.25
2022-12-27T05:32:39.926Z,1.40
2022-12-27T05:35:25.519Z,1.30
2022-12-27T05:38:11.131Z,1.00
2022-12-27T05:41:00.992Z,1.00
2022-12-27T05:43:46.570Z,1.00
2022-12-27T05:46:32.222Z,1.45
2022-12-27T05:49:17.501Z,1.20
2022-12-27T05:52:03.034Z,1.20
2022-12-27T05:54:48.519Z,1.13
2022-12-27T05:57:34.299Z,1.10
2022-12-27T06:00:19.499Z,0.80
2022-12-27T06:03:05.054Z,1.83
2022-12-27T06:05:50.546Z,1.10
2022-12-27T06:08:36.727Z,1.00
2022-12-27T06:11:21.916Z,1.13
2022-12-27T06:14:07.553Z,2.03
2022-12-27T06:16:52.876Z,1.40
2022-12-27T06:19:38.359Z,1.10
2022-12-27T06:22:23.605Z,1.02
2022-12-27T06:25:13.956Z,0.90
2022-12-27T06:27:59.581Z,1.40
2022-12-27T06:30:45.069Z,1.33
2022-12-27T06:33:30.614Z,0.90
2022-12-27T06:36:18.365Z,1.20
2022-12-27T06:39:03.853Z,1.13
2022-12-27T06:41:50.677Z,1.20
2022-12-27T06:44:36.285Z,1.00
2022-12-27T06:47:21.716Z,0.90
2022-12-27T06:50:07.522Z,1.10
2022-12-27T06:52:53.309Z,1.30
2022-12-27T06:55:38.667Z,0.95
2022-12-27T06:58:24.181Z,1.15
2022-12-27T07:01:24.508Z,1.20
2022-12-27T07:04:10.161Z,1.30
2022-12-27T07:06:55.586Z,1.30
2022-12-27T07:09:40.975Z,1.40
2022-12-27T07:12:27.918Z,1.50
2022-12-27T07:15:16.802Z,1.23
2022-12-27T07:18:02.052Z,1.23
2022-12-27T07:20:47.506Z,1.23
2022-12-27T07:23:33.114Z,1.10
2022-12-27T07:26:21.589Z,1.13
2022-12-27T07:29:06.668Z,1.40
2022-12-27T07:31:52.140Z,1.10
2022-12-27T07:34:37.615Z,1.60
2022-12-27T07:37:23.779Z,1.33
2022-12-27T07:40:09.414Z,1.20
2022-12-27T07:42:54.966Z,1.10
2022-12-27T07:45:40.235Z,1.30
2022-12-27T07:48:27.846Z,1.17
2022-12-27T07:51:14.186Z,1.38
2022-12-27T07:53:59.534Z,1.10
2022-12-27T07:56:44.930Z,1.15
2022-12-27T07:59:30.345Z,1.25
2022-12-27T08:02:16.507Z,1.10
2022-12-27T08:05:02.246Z,1.17
2022-12-27T08:07:47.781Z,1.05
2022-12-27T08:10:33.901Z,0.90
2022-12-27T08:13:19.428Z,1.20
2022-12-27T08:16:05.209Z,0.90
2022-12-27T08:18:53.121Z,0.90
2022-12-27T08:21:38.310Z,0.90
2022-12-27T08:24:24.496Z,0.98
2022-12-27T08:27:10.693Z,1.02
2022-12-27T08:29:56.247Z,0.82
2022-12-27T08:32:41.624Z,0.80
2022-12-27T08:35:51.690Z,1.10
2022-12-27T08:38:33.007Z,0.90
2022-12-27T08:41:20.883Z,0.95
2022-12-27T08:44:07.064Z,1.20
2022-12-27T08:46:52.546Z,1.50
2022-12-27T08:49:37.849Z,1.13
2022-12-27T08:52:23.368Z,0.90
2022-12-27T08:55:09.243Z,1.10
2022-12-27T08:57:58.728Z,1.05
2022-12-27T09:00:44.089Z,1.17
2022-12-27T09:03:29.695Z,1.13
2022-12-27T09:06:19.625Z,1.30
2022-12-27T09:09:05.205Z,1.33
2022-12-27T09:11:50.675Z,1.17
2022-12-27T09:14:36.215Z,1.15
2022-12-27T09:17:21.644Z,1.38
2022-12-27T09:20:08.007Z,1.25
2022-12-27T09:22:53.447Z,1.38
2022-12-27T09:25:39.051Z,1.35
2022-12-27T09:28:24.906Z,1.40
2022-12-27T09:31:12.060Z,1.35
2022-12-27T09:33:58.108Z,1.50
2022-12-27T09:36:43.289Z,1.20
2022-12-27T09:39:28.883Z,1.30
2022-12-27T09:43:06.267Z,1.70
2022-12-27T09:45:45.480Z,1.85
2022-12-27T09:48:38.155Z,1.40
2022-12-27T09:54:27.018Z,1.98
2022-12-27T09:57:21.841Z,2.08
2022-12-27T10:00:34.175Z,1.73
2022-12-27T10:03:25.662Z,1.50
2022-12-27T10:06:40.117Z,1.50
2022-12-27T10:09:56.584Z,1.60
2022-12-27T10:12:53.985Z,1.77
2022-12-27T10:16:12.504Z,1.70
2022-12-27T10:19:18.628Z,2.15
2022-12-27T10:22:34.139Z,1.63
2022-12-27T10:25:23.214Z,2.40
2022-12-27T10:28:25.463Z,1.63
2022-12-27T10:31:19.461Z,2.00
2022-12-27T10:34:09.030Z,2.03
2022-12-27T10:36:56.237Z,1.60
2022-12-27T10:39:42.485Z,1.90
2022-12-27T10:42:38.447Z,1.90
2022-12-27T10:45:33.356Z,2.05
2022-12-27T10:48:22.876Z,2.00
2022-12-27T10:51:10.843Z,2.17
2022-12-27T10:54:02.625Z,2.30
2022-12-27T10:56:48.060Z,1.90
2022-12-27T10:59:33.345Z,2.30
2022-12-27T11:02:19.671Z,1.80
2022-12-27T11:05:05.285Z,2.53
2022-12-27T11:07:51.061Z,2.28
2022-12-27T11:10:36.413Z,2.58
2022-12-27T11:13:22.184Z,2.42
2022-12-27T11:16:29.714Z,2.53
2022-12-27T11:19:25.449Z,3.00
2022-12-27T11:22:10.891Z,2.22
2022-12-27T11:25:00.276Z,2.17
2022-12-27T11:27:52.384Z,2.25
2022-12-27T11:30:40.068Z,2.47
2022-12-27T11:33:39.181Z,2.25
2022-12-27T11:36:38.054Z,2.00
2022-12-27T11:39:41.949Z,1.88
2022-12-27T11:42:39.889Z,1.75
2022-12-27T11:45:34.150Z,1.80
2022-12-27T11:48:32.859Z,1.83
2022-12-27T11:51:45.444Z,2.13
2022-12-27T11:54:58.332Z,2.22
2022-12-27T12:04:01.754Z,2.53
2022-12-27T12:07:05.123Z,2.80
2022-12-27T12:10:19.761Z,2.97
2022-12-27T12:13:29.048Z,3.00
2022-12-27T12:16:50.590Z,2.88
2022-12-27T12:20:11.100Z,2.78
2022-12-27T12:23:15.661Z,2.70
2022-12-27T12:26:37.141Z,2.85
2022-12-27T12:29:47.270Z,2.88
2022-12-27T12:32:57.924Z,2.15
2022-12-27T12:35:58.146Z,2.85
2022-12-27T12:39:10.022Z,2.65
2022-12-27T12:42:19.335Z,2.92
2022-12-27T12:45:28.125Z,2.42
2022-12-27T12:48:37.865Z,2.85
2022-12-27T12:52:03.211Z,2.75
2022-12-27T12:55:00.819Z,3.20
2022-12-27T12:58:19.509Z,2.80
2022-12-27T13:01:32.004Z,3.20
2022-12-27T13:04:55.712Z,2.78
2022-12-27T13:07:59.210Z,2.63
2022-12-27T13:11:05.355Z,2.75
2022-12-27T13:14:05.590Z,3.25
2022-12-27T13:17:20.780Z,2.90
2022-12-27T13:20:24.573Z,2.80
2022-12-27T13:23:28.455Z,3.17
2022-12-27T13:26:24.233Z,2.65
2022-12-27T13:29:38.983Z,3.35
2022-12-27T13:32:50.558Z,2.67
2022-12-27T13:36:02.962Z,2.67
2022-12-27T13:39:08.384Z,2.85
2022-12-27T13:42:15.749Z,2.95
2022-12-27T13:45:26.221Z,2.90
2022-12-27T13:48:40.070Z,2.97
2022-12-27T13:51:37.334Z,2.83
2022-12-27T13:55:01.164Z,2.55
2022-12-27T13:58:04.943Z,2.80
2022-12-27T14:01:05.285Z,2.53
2022-12-27T14:04:20.505Z,2.78
2022-12-27T14:07:27.723Z,2.38
2022-12-27T14:10:12.778Z,2.92
2022-12-27T14:13:08.997Z,2.80
2022-12-27T14:16:12.674Z,2.55
2022-12-27T14:19:41.793Z,3.03
2022-12-27T14:22:54.460Z,2.30
2022-12-27T14:26:04.207Z,2.65
2022-12-27T14:29:23.681Z,2.33
2022-12-27T14:32:46.525Z,2.35
2022-12-27T14:36:02.944Z,2.17
2022-12-27T14:39:19.559Z,2.70
2022-12-27T14:42:55.133Z,2.50
2022-12-27T14:46:05.468Z,2.40
2022-12-27T14:49:21.266Z,2.50
2022-12-27T14:52:13.065Z,2.53
2022-12-27T14:55:32.669Z,2.75
2022-12-27T14:58:26.818Z,2.72
2022-12-27T15:01:39.144Z,2.92
2022-12-27T15:04:27.317Z,2.72
2022-12-27T15:07:59.754Z,2.40
2022-12-27T15:11:00.461Z,2.90
2022-12-27T15:14:21.018Z,2.80
2022-12-27T15:17:53.994Z,2.88
2022-12-27T15:20:57.637Z,2.38
2022-12-27T15:24:13.575Z,2.53
2022-12-27T15:27:38.122Z,2.40
2022-12-27T15:30:47.033Z,2.75
2022-12-27T15:33:44.387Z,2.60
2022-12-27T15:36:40.105Z,2.38
2022-12-27T15:39:34.235Z,3.25
2022-12-27T15:42:34.675Z,3.13
2022-12-27T15:45:38.414Z,2.72
2022-12-27T15:48:41.824Z,3.08
2022-12-27T15:51:45.114Z,2.90
2022-12-27T15:54:31.064Z,3.17
2022-12-27T15:57:31.651Z,2.88
2022-12-27T16:00:29.960Z,3.85
2022-12-27T16:03:37.099Z,3.60
2022-12-27T16:06:50.014Z,3.70
2022-12-27T16:09:38.089Z,3.25
2022-12-27T16:12:39.173Z,3.28
2022-12-27T16:15:44.762Z,3.28
2022-12-27T16:18:46.637Z,3.70
2022-12-27T16:21:44.117Z,4.10
2022-12-27T16:24:30.100Z,3.25
2022-12-27T16:27:28.881Z,3.70
2022-12-27T16:30:34.090Z,3.83
2022-12-27T16:33:33.325Z,3.65
2022-12-27T16:36:36.841Z,3.63
2022-12-27T16:39:44.083Z,3.70
2022-12-27T16:42:58.603Z,3.50
2022-12-27T16:46:07.958Z,4.18
2022-12-27T16:49:18.047Z,3.50
2022-12-27T16:52:17.253Z,4.20
2022-12-27T16:55:18.866Z,3.58
2022-12-27T16:58:26.465Z,3.65
2022-12-27T17:01:48.757Z,3.80
2022-12-27T17:04:49.960Z,3.88
2022-12-27T17:07:44.477Z,3.90
2022-12-27T17:10:34.933Z,3.80
2022-12-27T17:13:27.663Z,3.95
2022-12-27T17:19:18.877Z,3.85
2022-12-27T17:22:07.115Z,4.55
2022-12-27T17:24:56.917Z,4.40
2022-12-27T17:28:08.053Z,4.78
2022-12-27T17:31:31.398Z,4.55
2022-12-27T17:34:40.155Z,4.68
2022-12-27T17:37:31.371Z,4.20
2022-12-27T17:40:36.121Z,4.25
2022-12-27T17:43:44.362Z,4.30
2022-12-27T17:46:57.450Z,4.75
2022-12-27T17:52:47.157Z,4.30
2022-12-27T17:55:51.108Z,4.15
2022-12-27T17:58:36.388Z,4.05
2022-12-27T18:01:21.789Z,3.90
2022-12-27T18:04:07.693Z,4.45
2022-12-27T18:07:01.084Z,3.85
2022-12-27T18:09:56.742Z,4.10
2022-12-27T18:12:45.400Z,4.00
2022-12-27T18:15:34.734Z,4.28
2022-12-27T18:18:33.061Z,3.63
2022-12-27T18:21:25.095Z,3.42
2022-12-27T18:24:45.764Z,4.20
2022-12-27T18:27:31.145Z,3.67
2022-12-27T18:30:16.501Z,3.80
2022-12-27T18:33:02.693Z,4.15
2022-12-27T18:35:51.090Z,3.45
2022-12-27T18:38:43.291Z,3.97
2022-12-27T18:41:37.253Z,3.97
2022-12-27T18:44:27.663Z,3.38
2022-12-27T18:47:23.998Z,3.60
2022-12-27T18:50:17.949Z,3.65
2022-12-27T18:53:26.196Z,3.28
2022-12-27T18:56:14.667Z,3.10
2022-12-27T18:59:08.255Z,3.35
2022-12-27T19:01:54.827Z,3.28
2022-12-27T19:04:40.704Z,3.05
2022-12-27T19:07:26.463Z,3.20
2022-12-27T19:10:27.117Z,2.80
2022-12-27T19:13:27.750Z,3.05
2022-12-27T19:16:34.722Z,3.15
2022-12-27T19:19:26.639Z,3.03
2022-12-27T19:22:30.805Z,3.10
2022-12-27T19:25:26.433Z,3.17
2022-12-27T19:28:11.851Z,2.85
2022-12-27T19:31:17.970Z,3.08
2022-12-27T19:34:09.042Z,2.90
2022-12-27T19:36:55.796Z,3.03
2022-12-27T19:39:41.910Z,3.58
2022-12-27T19:42:31.272Z,3.00
2022-12-27T19:45:17.789Z,3.50
2022-12-27T19:48:07.115Z,3.20
2022-12-27T19:50:54.418Z,3.30
2022-12-27T19:53:42.640Z,3.50
2022-12-27T19:56:28.572Z,3.15
2022-12-27T19:59:25.371Z,3.55
2022-12-27T20:02:11.471Z,3.53
2022-12-27T20:04:56.654Z,3.67
2022-12-27T20:07:42.479Z,3.60
2022-12-27T20:10:28.039Z,3.35
2022-12-27T20:13:13.314Z,3.20
2022-12-27T20:15:59.968Z,3.50
2022-12-27T20:18:46.007Z,3.65
2022-12-27T20:21:31.630Z,3.33
2022-12-27T20:24:17.490Z,3.13
2022-12-27T20:27:03.067Z,3.00
2022-12-27T20:29:48.857Z,2.95
2022-12-27T20:32:34.048Z,3.03
2022-12-27T20:35:19.697Z,2.90
2022-12-27T20:38:05.521Z,3.00
2022-12-27T20:40:50.685Z,2.95
2022-12-27T20:43:36.865Z,3.08
2022-12-27T20:46:22.415Z,3.58
2022-12-27T20:49:08.238Z,3.10
2022-12-27T20:51:53.721Z,2.85
2022-12-27T20:54:39.000Z,3.10
2022-12-27T20:57:24.483Z,2.50
2022-12-27T21:00:11.897Z,3.03
2022-12-27T21:02:57.715Z,2.80
2022-12-27T21:05:43.257Z,2.85
2022-12-27T21:08:28.586Z,2.80
2022-12-27T21:11:16.429Z,2.83
2022-12-27T21:14:04.136Z,2.58
2022-12-27T21:16:49.454Z,2.50
2022-12-27T21:19:34.961Z,2.85
2022-12-27T21:22:20.799Z,2.88
2022-12-27T21:25:06.548Z,2.63
2022-12-27T21:27:52.137Z,2.40
2022-12-27T21:30:37.766Z,2.20
2022-12-27T21:33:23.908Z,2.40
2022-12-27T21:36:13.533Z,2.80
2022-12-27T21:38:59.022Z,2.75
2022-12-27T21:41:44.231Z,2.92
2022-12-27T21:44:29.883Z,2.30
2022-12-27T21:47:15.657Z,2.92
2022-12-27T21:50:00.945Z,2.53
2022-12-27T21:52:46.689Z,2.45
2022-12-27T21:55:31.813Z,2.60
2022-12-27T21:58:17.288Z,2.88
2022-12-27T22:01:08.578Z,2.80
2022-12-27T22:03:55.569Z,2.50
2022-12-27T22:06:46.555Z,2.40
2022-12-27T22:09:33.022Z,3.00
2022-12-27T22:12:18.138Z,2.60
2022-12-27T22:15:03.933Z,2.75
2022-12-27T22:17:49.728Z,2.63
2022-12-27T22:20:35.019Z,2.45
2022-12-27T22:23:20.701Z,2.70
2022-12-27T22:26:10.456Z,2.78
2022-12-27T22:28:56.468Z,2.70
2022-12-27T22:31:42.849Z,2.30
2022-12-27T22:34:28.317Z,2.60
2022-12-27T22:37:13.520Z,2.53
2022-12-27T22:39:58.720Z,2.90
2022-12-27T22:42:44.028Z,2.80
2022-12-27T22:45:29.363Z,2.78
2022-12-27T22:48:14.718Z,2.67
2022-12-27T22:51:06.694Z,2.50
2022-12-27T22:53:52.135Z,2.50
2022-12-27T22:56:40.197Z,2.80
2022-12-27T22:59:25.566Z,2.55
2022-12-27T23:02:11.006Z,2.55
2022-12-27T23:04:56.418Z,2.45
2022-12-27T23:08:05.117Z,3.10
2022-12-27T23:10:47.052Z,2.72
2022-12-27T23:13:32.508Z,3.22
2022-12-27T23:16:18.180Z,2.67
2022-12-27T23:19:04.070Z,3.00
2022-12-27T23:21:49.923Z,2.72
2022-12-27T23:24:36.209Z,2.95
2022-12-27T23:27:21.793Z,2.47
2022-12-27T23:30:07.560Z,2.90
2022-12-27T23:32:52.999Z,2.80
2022-12-27T23:35:38.321Z,3.00
2022-12-27T23:38:23.983Z,2.75
2022-12-27T23:41:14.205Z,3.00
2022-12-27T23:44:00.922Z,3.03
2022-12-27T23:46:45.981Z,2.90
2022-12-27T23:49:31.673Z,3.00
2022-12-27T23:52:18.401Z,3.17
2022-12-27T23:55:05.112Z,2.92
2022-12-27T23:57:50.805Z,3.17
